sensor_id;sensor_type;location;lat;lon;timestamp;temperature;humidity
4103;DHT22;2065;49.790;9.620;2022-09-09T00:01:00;21.20;53.30
4103;DHT22;2065;49.790;9.620;2022-09-09T00:03:40;21.20;53.50
4103;DHT22;2065;49.790;9.620;2022-09-09T00:06:16;21.20;54.00
4103;DHT22;2065;49.790;9.620;2022-09-09T00:08:56;21.20;54.90
4103;DHT22;2065;49.790;9.620;2022-09-09T00:11:29;21.20;55.40
4103;DHT22;2065;49.790;9.620;2022-09-09T00:14:00;20.90;55.60
4103;DHT22;2065;49.790;9.620;2022-09-09T00:16:32;20.60;56.70
4103;DHT22;2065;49.790;9.620;2022-09-09T00:19:04;20.70;57.10
4103;DHT22;2065;49.790;9.620;2022-09-09T00:21:34;20.70;57.60
4103;DHT22;2065;49.790;9.620;2022-09-09T00:24:10;20.80;58.00
4103;DHT22;2065;49.790;9.620;2022-09-09T00:26:43;20.90;57.40
4103;DHT22;2065;49.790;9.620;2022-09-09T00:29:23;21.00;56.50
4103;DHT22;2065;49.790;9.620;2022-09-09T00:31:54;21.00;56.90
4103;DHT22;2065;49.790;9.620;2022-09-09T00:34:26;21.00;57.60
4103;DHT22;2065;49.790;9.620;2022-09-09T00:36:56;21.00;57.50
4103;DHT22;2065;49.790;9.620;2022-09-09T00:40:50;21.10;56.80
4103;DHT22;2065;49.790;9.620;2022-09-09T00:44:25;21.00;55.20
4103;DHT22;2065;49.790;9.620;2022-09-09T00:47:16;21.00;57.10
4103;DHT22;2065;49.790;9.620;2022-09-09T00:49:59;21.00;57.60
4103;DHT22;2065;49.790;9.620;2022-09-09T00:52:39;21.00;57.60
4103;DHT22;2065;49.790;9.620;2022-09-09T00:55:13;21.00;56.90
4103;DHT22;2065;49.790;9.620;2022-09-09T00:57:45;21.00;57.00
4103;DHT22;2065;49.790;9.620;2022-09-09T01:00:23;21.00;56.60
4103;DHT22;2065;49.790;9.620;2022-09-09T01:03:01;21.00;56.70
4103;DHT22;2065;49.790;9.620;2022-09-09T01:05:36;21.00;56.50
4103;DHT22;2065;49.790;9.620;2022-09-09T01:08:14;21.00;56.40
4103;DHT22;2065;49.790;9.620;2022-09-09T01:10:50;21.00;56.40
4103;DHT22;2065;49.790;9.620;2022-09-09T01:13:24;21.00;56.60
4103;DHT22;2065;49.790;9.620;2022-09-09T01:15:54;20.90;56.50
4103;DHT22;2065;49.790;9.620;2022-09-09T01:18:23;20.90;56.30
4103;DHT22;2065;49.790;9.620;2022-09-09T01:21:00;20.90;56.40
4103;DHT22;2065;49.790;9.620;2022-09-09T01:23:43;20.90;55.90
4103;DHT22;2065;49.790;9.620;2022-09-09T01:26:34;20.80;56.00
4103;DHT22;2065;49.790;9.620;2022-09-09T01:29:08;20.40;57.90
4103;DHT22;2065;49.790;9.620;2022-09-09T01:31:41;20.50;58.20
4103;DHT22;2065;49.790;9.620;2022-09-09T01:34:11;20.50;56.60
4103;DHT22;2065;49.790;9.620;2022-09-09T01:36:42;20.40;55.90
4103;DHT22;2065;49.790;9.620;2022-09-09T01:39:12;20.30;56.60
4103;DHT22;2065;49.790;9.620;2022-09-09T01:41:42;20.40;57.50
4103;DHT22;2065;49.790;9.620;2022-09-09T01:44:12;20.40;56.90
4103;DHT22;2065;49.790;9.620;2022-09-09T01:46:43;20.50;56.80
4103;DHT22;2065;49.790;9.620;2022-09-09T01:49:16;20.50;57.10
4103;DHT22;2065;49.790;9.620;2022-09-09T01:51:47;20.60;57.80
4103;DHT22;2065;49.790;9.620;2022-09-09T01:54:17;20.60;56.80
4103;DHT22;2065;49.790;9.620;2022-09-09T01:56:54;20.60;57.00
4103;DHT22;2065;49.790;9.620;2022-09-09T01:59:38;20.70;57.10
4103;DHT22;2065;49.790;9.620;2022-09-09T02:02:11;20.70;57.20
4103;DHT22;2065;49.790;9.620;2022-09-09T02:04:48;20.70;57.10
4103;DHT22;2065;49.790;9.620;2022-09-09T02:07:31;20.70;57.10
4103;DHT22;2065;49.790;9.620;2022-09-09T02:10:06;20.80;57.60
4103;DHT22;2065;49.790;9.620;2022-09-09T02:12:42;20.80;57.70
4103;DHT22;2065;49.790;9.620;2022-09-09T02:15:18;20.80;57.60
4103;DHT22;2065;49.790;9.620;2022-09-09T02:17:51;20.90;57.50
4103;DHT22;2065;49.790;9.620;2022-09-09T02:20:20;20.80;57.40
4103;DHT22;2065;49.790;9.620;2022-09-09T02:22:53;20.70;57.40
4103;DHT22;2065;49.790;9.620;2022-09-09T02:25:26;20.70;58.00
4103;DHT22;2065;49.790;9.620;2022-09-09T02:27:59;20.80;58.20
4103;DHT22;2065;49.790;9.620;2022-09-09T02:30:28;20.80;58.20
4103;DHT22;2065;49.790;9.620;2022-09-09T02:32:59;20.80;58.20
4103;DHT22;2065;49.790;9.620;2022-09-09T02:35:42;20.70;58.50
4103;DHT22;2065;49.790;9.620;2022-09-09T02:38:13;20.80;58.50
4103;DHT22;2065;49.790;9.620;2022-09-09T02:40:50;20.70;58.30
4103;DHT22;2065;49.790;9.620;2022-09-09T02:43:19;20.70;58.20
4103;DHT22;2065;49.790;9.620;2022-09-09T02:45:51;20.80;58.20
4103;DHT22;2065;49.790;9.620;2022-09-09T02:48:25;20.70;57.60
4103;DHT22;2065;49.790;9.620;2022-09-09T02:51:00;20.70;57.70
4103;DHT22;2065;49.790;9.620;2022-09-09T02:53:37;20.80;57.90
4103;DHT22;2065;49.790;9.620;2022-09-09T02:56:10;20.70;58.00
4103;DHT22;2065;49.790;9.620;2022-09-09T02:58:44;20.70;58.40
4103;DHT22;2065;49.790;9.620;2022-09-09T03:01:12;20.70;57.90
4103;DHT22;2065;49.790;9.620;2022-09-09T03:03:39;20.70;57.50
4103;DHT22;2065;49.790;9.620;2022-09-09T03:06:11;20.70;57.80
4103;DHT22;2065;49.790;9.620;2022-09-09T03:08:39;20.60;58.00
4103;DHT22;2065;49.790;9.620;2022-09-09T03:11:07;20.60;57.80
4103;DHT22;2065;49.790;9.620;2022-09-09T03:13:36;20.70;57.50
4103;DHT22;2065;49.790;9.620;2022-09-09T03:16:05;20.60;57.00
4103;DHT22;2065;49.790;9.620;2022-09-09T03:18:38;20.60;57.50
4103;DHT22;2065;49.790;9.620;2022-09-09T03:21:05;20.60;57.70
4103;DHT22;2065;49.790;9.620;2022-09-09T03:23:32;20.60;58.20
4103;DHT22;2065;49.790;9.620;2022-09-09T03:26:02;20.60;57.90
4103;DHT22;2065;49.790;9.620;2022-09-09T03:28:38;20.60;57.80
4103;DHT22;2065;49.790;9.620;2022-09-09T03:31:07;20.60;58.20
4103;DHT22;2065;49.790;9.620;2022-09-09T03:33:39;20.60;58.40
4103;DHT22;2065;49.790;9.620;2022-09-09T03:36:07;20.70;58.60
4103;DHT22;2065;49.790;9.620;2022-09-09T03:38:35;20.70;58.50
4103;DHT22;2065;49.790;9.620;2022-09-09T03:41:02;20.70;58.30
4103;DHT22;2065;49.790;9.620;2022-09-09T03:43:29;20.60;58.00
4103;DHT22;2065;49.790;9.620;2022-09-09T03:45:57;20.70;57.90
4103;DHT22;2065;49.790;9.620;2022-09-09T03:48:27;20.70;57.90
4103;DHT22;2065;49.790;9.620;2022-09-09T03:50:55;20.60;57.80
4103;DHT22;2065;49.790;9.620;2022-09-09T03:53:24;20.60;57.10
4103;DHT22;2065;49.790;9.620;2022-09-09T03:55:53;20.60;57.50
4103;DHT22;2065;49.790;9.620;2022-09-09T03:58:23;20.40;58.00
4103;DHT22;2065;49.790;9.620;2022-09-09T04:00:55;20.30;58.20
4103;DHT22;2065;49.790;9.620;2022-09-09T04:03:22;20.30;58.30
4103;DHT22;2065;49.790;9.620;2022-09-09T04:05:51;20.40;58.30
4103;DHT22;2065;49.790;9.620;2022-09-09T04:08:20;20.50;58.20
4103;DHT22;2065;49.790;9.620;2022-09-09T04:10:48;20.50;58.10
4103;DHT22;2065;49.790;9.620;2022-09-09T04:13:18;20.50;58.00
4103;DHT22;2065;49.790;9.620;2022-09-09T04:15:51;20.50;57.30
4103;DHT22;2065;49.790;9.620;2022-09-09T04:18:18;20.40;58.00
4103;DHT22;2065;49.790;9.620;2022-09-09T04:20:47;20.40;58.50
4103;DHT22;2065;49.790;9.620;2022-09-09T04:23:17;20.40;58.60
4103;DHT22;2065;49.790;9.620;2022-09-09T04:25:47;20.40;58.00
4103;DHT22;2065;49.790;9.620;2022-09-09T04:28:16;20.40;57.20
4103;DHT22;2065;49.790;9.620;2022-09-09T04:30:44;20.30;57.30
4103;DHT22;2065;49.790;9.620;2022-09-09T04:33:13;20.30;57.20
4103;DHT22;2065;49.790;9.620;2022-09-09T04:35:44;20.20;55.90
4103;DHT22;2065;49.790;9.620;2022-09-09T04:38:17;20.10;55.80
4103;DHT22;2065;49.790;9.620;2022-09-09T04:40:47;20.00;56.50
4103;DHT22;2065;49.790;9.620;2022-09-09T04:43:15;20.10;57.50
4103;DHT22;2065;49.790;9.620;2022-09-09T04:45:47;20.10;57.90
4103;DHT22;2065;49.790;9.620;2022-09-09T04:48:14;20.10;58.60
4103;DHT22;2065;49.790;9.620;2022-09-09T04:50:41;20.10;58.20
4103;DHT22;2065;49.790;9.620;2022-09-09T04:53:11;20.20;58.20
4103;DHT22;2065;49.790;9.620;2022-09-09T04:55:39;20.20;58.10
4103;DHT22;2065;49.790;9.620;2022-09-09T04:58:07;20.20;57.90
4103;DHT22;2065;49.790;9.620;2022-09-09T05:00:35;20.30;58.00
4103;DHT22;2065;49.790;9.620;2022-09-09T05:03:05;20.20;58.40
4103;DHT22;2065;49.790;9.620;2022-09-09T05:05:35;20.20;58.40
4103;DHT22;2065;49.790;9.620;2022-09-09T05:08:03;20.20;58.60
4103;DHT22;2065;49.790;9.620;2022-09-09T05:10:30;20.20;58.80
4103;DHT22;2065;49.790;9.620;2022-09-09T05:12:59;20.10;58.90
4103;DHT22;2065;49.790;9.620;2022-09-09T05:15:29;20.00;59.20
4103;DHT22;2065;49.790;9.620;2022-09-09T05:17:57;19.90;59.40
4103;DHT22;2065;49.790;9.620;2022-09-09T05:20:25;19.90;59.70
4103;DHT22;2065;49.790;9.620;2022-09-09T05:22:53;19.90;59.90
4103;DHT22;2065;49.790;9.620;2022-09-09T05:25:21;20.00;59.80
4103;DHT22;2065;49.790;9.620;2022-09-09T05:27:50;19.90;60.30
4103;DHT22;2065;49.790;9.620;2022-09-09T05:30:18;20.00;59.80
4103;DHT22;2065;49.790;9.620;2022-09-09T05:32:45;20.10;59.70
4103;DHT22;2065;49.790;9.620;2022-09-09T05:35:13;20.20;59.50
4103;DHT22;2065;49.790;9.620;2022-09-09T05:37:41;20.30;59.20
4103;DHT22;2065;49.790;9.620;2022-09-09T05:40:09;20.30;59.00
4103;DHT22;2065;49.790;9.620;2022-09-09T05:42:39;20.20;59.50
4103;DHT22;2065;49.790;9.620;2022-09-09T05:45:07;20.10;59.80
4103;DHT22;2065;49.790;9.620;2022-09-09T05:47:36;20.10;59.80
4103;DHT22;2065;49.790;9.620;2022-09-09T05:50:06;20.00;59.80
4103;DHT22;2065;49.790;9.620;2022-09-09T05:52:33;20.10;59.40
4103;DHT22;2065;49.790;9.620;2022-09-09T05:55:00;20.10;59.50
4103;DHT22;2065;49.790;9.620;2022-09-09T05:57:30;20.20;60.30
4103;DHT22;2065;49.790;9.620;2022-09-09T05:59:57;20.10;60.60
4103;DHT22;2065;49.790;9.620;2022-09-09T06:02:25;20.10;60.70
4103;DHT22;2065;49.790;9.620;2022-09-09T06:04:53;20.20;60.50
4103;DHT22;2065;49.790;9.620;2022-09-09T06:07:22;20.30;60.60
4103;DHT22;2065;49.790;9.620;2022-09-09T06:09:49;20.40;60.00
4103;DHT22;2065;49.790;9.620;2022-09-09T06:12:17;20.40;60.10
4103;DHT22;2065;49.790;9.620;2022-09-09T06:14:45;20.40;60.70
4103;DHT22;2065;49.790;9.620;2022-09-09T06:17:12;20.30;60.30
4103;DHT22;2065;49.790;9.620;2022-09-09T06:19:39;20.30;60.20
4103;DHT22;2065;49.790;9.620;2022-09-09T06:22:08;20.40;60.90
4103;DHT22;2065;49.790;9.620;2022-09-09T06:24:38;20.10;60.20
4103;DHT22;2065;49.790;9.620;2022-09-09T06:27:06;20.10;61.00
4103;DHT22;2065;49.790;9.620;2022-09-09T06:29:35;20.20;61.60
4103;DHT22;2065;49.790;9.620;2022-09-09T06:32:03;20.40;61.30
4103;DHT22;2065;49.790;9.620;2022-09-09T06:34:30;20.50;61.10
4103;DHT22;2065;49.790;9.620;2022-09-09T06:36:59;20.30;61.20
4103;DHT22;2065;49.790;9.620;2022-09-09T06:39:35;20.30;61.10
4103;DHT22;2065;49.790;9.620;2022-09-09T06:42:02;20.30;61.00
4103;DHT22;2065;49.790;9.620;2022-09-09T06:45:06;20.40;60.60
4103;DHT22;2065;49.790;9.620;2022-09-09T06:47:42;20.50;60.00
4103;DHT22;2065;49.790;9.620;2022-09-09T06:50:09;20.60;59.00
4103;DHT22;2065;49.790;9.620;2022-09-09T06:52:37;20.60;58.90
4103;DHT22;2065;49.790;9.620;2022-09-09T06:55:07;20.80;59.10
4103;DHT22;2065;49.790;9.620;2022-09-09T06:57:36;21.00;59.10
4103;DHT22;2065;49.790;9.620;2022-09-09T07:00:05;21.10;59.10
4103;DHT22;2065;49.790;9.620;2022-09-09T07:02:34;21.20;58.50
4103;DHT22;2065;49.790;9.620;2022-09-09T07:05:06;21.10;59.00
4103;DHT22;2065;49.790;9.620;2022-09-09T07:07:34;21.10;58.30
4103;DHT22;2065;49.790;9.620;2022-09-09T07:10:01;21.20;58.20
4103;DHT22;2065;49.790;9.620;2022-09-09T07:12:31;21.10;57.50
4103;DHT22;2065;49.790;9.620;2022-09-09T07:14:59;21.00;57.70
4103;DHT22;2065;49.790;9.620;2022-09-09T07:17:27;21.00;57.20
4103;DHT22;2065;49.790;9.620;2022-09-09T07:19:55;20.90;57.30
4103;DHT22;2065;49.790;9.620;2022-09-09T07:22:22;20.80;57.60
4103;DHT22;2065;49.790;9.620;2022-09-09T07:24:51;20.80;57.50
4103;DHT22;2065;49.790;9.620;2022-09-09T07:27:18;20.90;58.00
4103;DHT22;2065;49.790;9.620;2022-09-09T07:29:48;21.00;58.20
4103;DHT22;2065;49.790;9.620;2022-09-09T07:32:15;21.20;58.00
4103;DHT22;2065;49.790;9.620;2022-09-09T07:34:43;21.30;57.80
4103;DHT22;2065;49.790;9.620;2022-09-09T07:37:11;21.40;57.70
4103;DHT22;2065;49.790;9.620;2022-09-09T07:39:41;21.60;57.30
4103;DHT22;2065;49.790;9.620;2022-09-09T07:42:08;21.80;57.10
4103;DHT22;2065;49.790;9.620;2022-09-09T07:44:37;21.90;56.50
4103;DHT22;2065;49.790;9.620;2022-09-09T07:47:11;22.00;56.40
4103;DHT22;2065;49.790;9.620;2022-09-09T07:49:42;22.10;56.40
4103;DHT22;2065;49.790;9.620;2022-09-09T07:52:13;22.20;56.30
4103;DHT22;2065;49.790;9.620;2022-09-09T07:54:42;22.30;56.60
4103;DHT22;2065;49.790;9.620;2022-09-09T07:57:12;22.40;56.40
4103;DHT22;2065;49.790;9.620;2022-09-09T07:59:42;22.50;56.50
4103;DHT22;2065;49.790;9.620;2022-09-09T08:02:10;22.50;56.20
4103;DHT22;2065;49.790;9.620;2022-09-09T08:04:38;22.60;56.00
4103;DHT22;2065;49.790;9.620;2022-09-09T08:07:05;22.60;54.80
4103;DHT22;2065;49.790;9.620;2022-09-09T08:09:39;22.50;55.00
4103;DHT22;2065;49.790;9.620;2022-09-09T08:12:16;22.50;55.50
4103;DHT22;2065;49.790;9.620;2022-09-09T08:14:44;22.50;55.20
4103;DHT22;2065;49.790;9.620;2022-09-09T08:17:12;22.60;55.30
4103;DHT22;2065;49.790;9.620;2022-09-09T08:19:39;22.70;55.50
4103;DHT22;2065;49.790;9.620;2022-09-09T08:22:12;22.70;55.00
4103;DHT22;2065;49.790;9.620;2022-09-09T08:24:39;22.60;55.00
4103;DHT22;2065;49.790;9.620;2022-09-09T08:27:07;22.60;55.30
4103;DHT22;2065;49.790;9.620;2022-09-09T08:29:35;22.70;55.80
4103;DHT22;2065;49.790;9.620;2022-09-09T08:32:04;22.70;55.20
4103;DHT22;2065;49.790;9.620;2022-09-09T08:34:33;22.80;54.70
4103;DHT22;2065;49.790;9.620;2022-09-09T08:37:04;23.00;54.50
4103;DHT22;2065;49.790;9.620;2022-09-09T08:39:38;23.10;54.40
4103;DHT22;2065;49.790;9.620;2022-09-09T08:42:26;23.10;54.00
4103;DHT22;2065;49.790;9.620;2022-09-09T08:45:13;23.10;54.90
4103;DHT22;2065;49.790;9.620;2022-09-09T08:47:49;23.00;54.50
4103;DHT22;2065;49.790;9.620;2022-09-09T08:50:25;23.00;54.50
4103;DHT22;2065;49.790;9.620;2022-09-09T08:53:02;22.80;54.30
4103;DHT22;2065;49.790;9.620;2022-09-09T08:55:38;22.80;54.30
4103;DHT22;2065;49.790;9.620;2022-09-09T08:58:12;22.80;54.10
4103;DHT22;2065;49.790;9.620;2022-09-09T09:01:17;22.90;54.10
4103;DHT22;2065;49.790;9.620;2022-09-09T09:03:56;22.70;54.20
4103;DHT22;2065;49.790;9.620;2022-09-09T09:06:38;22.90;54.50
4103;DHT22;2065;49.790;9.620;2022-09-09T09:09:13;23.00;54.20
4103;DHT22;2065;49.790;9.620;2022-09-09T09:11:45;23.20;54.10
4103;DHT22;2065;49.790;9.620;2022-09-09T09:14:18;23.20;53.70
4103;DHT22;2065;49.790;9.620;2022-09-09T09:16:52;23.20;53.30
4103;DHT22;2065;49.790;9.620;2022-09-09T09:19:20;23.40;52.70
4103;DHT22;2065;49.790;9.620;2022-09-09T09:21:54;23.50;53.10
4103;DHT22;2065;49.790;9.620;2022-09-09T09:24:28;23.60;51.60
4103;DHT22;2065;49.790;9.620;2022-09-09T09:27:09;23.70;51.60
4103;DHT22;2065;49.790;9.620;2022-09-09T09:29:38;23.80;51.70
4103;DHT22;2065;49.790;9.620;2022-09-09T09:32:10;24.00;52.00
4103;DHT22;2065;49.790;9.620;2022-09-09T09:34:39;24.10;51.20
4103;DHT22;2065;49.790;9.620;2022-09-09T09:37:15;24.20;50.80
4103;DHT22;2065;49.790;9.620;2022-09-09T09:39:45;24.20;51.10
4103;DHT22;2065;49.790;9.620;2022-09-09T09:42:14;24.30;50.60
4103;DHT22;2065;49.790;9.620;2022-09-09T09:44:45;24.20;49.40
4103;DHT22;2065;49.790;9.620;2022-09-09T09:47:16;24.10;49.00
4103;DHT22;2065;49.790;9.620;2022-09-09T09:49:52;23.90;48.50
4103;DHT22;2065;49.790;9.620;2022-09-09T09:52:23;24.00;48.70
4103;DHT22;2065;49.790;9.620;2022-09-09T09:54:51;24.00;49.30
4103;DHT22;2065;49.790;9.620;2022-09-09T09:57:25;23.90;48.20
4103;DHT22;2065;49.790;9.620;2022-09-09T10:00:04;24.10;50.00
4103;DHT22;2065;49.790;9.620;2022-09-09T10:02:41;23.60;49.60
4103;DHT22;2065;49.790;9.620;2022-09-09T10:05:16;23.50;52.10
4103;DHT22;2065;49.790;9.620;2022-09-09T10:08:00;23.40;52.60
4103;DHT22;2065;49.790;9.620;2022-09-09T10:10:41;23.40;53.10
4103;DHT22;2065;49.790;9.620;2022-09-09T10:13:18;23.20;53.40
4103;DHT22;2065;49.790;9.620;2022-09-09T10:15:56;22.80;54.00
4103;DHT22;2065;49.790;9.620;2022-09-09T10:18:36;22.80;54.90
4103;DHT22;2065;49.790;9.620;2022-09-09T10:21:13;22.70;54.30
4103;DHT22;2065;49.790;9.620;2022-09-09T10:23:55;22.70;54.90
4103;DHT22;2065;49.790;9.620;2022-09-09T10:26:35;22.60;55.00
4103;DHT22;2065;49.790;9.620;2022-09-09T10:29:27;22.30;56.00
4103;DHT22;2065;49.790;9.620;2022-09-09T10:32:05;22.20;57.80
4103;DHT22;2065;49.790;9.620;2022-09-09T10:34:55;22.40;58.10
4103;DHT22;2065;49.790;9.620;2022-09-09T10:37:31;22.50;57.60
4103;DHT22;2065;49.790;9.620;2022-09-09T10:40:17;22.70;56.80
4103;DHT22;2065;49.790;9.620;2022-09-09T10:42:46;22.80;56.80
4103;DHT22;2065;49.790;9.620;2022-09-09T10:45:17;22.90;56.20
4103;DHT22;2065;49.790;9.620;2022-09-09T10:48:00;23.00;53.80
4103;DHT22;2065;49.790;9.620;2022-09-09T10:50:51;23.50;54.00
4103;DHT22;2065;49.790;9.620;2022-09-09T10:53:28;23.50;49.80
4103;DHT22;2065;49.790;9.620;2022-09-09T10:56:04;23.40;51.70
4103;DHT22;2065;49.790;9.620;2022-09-09T10:58:37;23.60;50.60
4103;DHT22;2065;49.790;9.620;2022-09-09T11:01:13;23.80;50.70
4103;DHT22;2065;49.790;9.620;2022-09-09T11:03:43;24.00;48.80
4103;DHT22;2065;49.790;9.620;2022-09-09T11:06:15;24.10;49.10
4103;DHT22;2065;49.790;9.620;2022-09-09T11:08:43;24.30;48.50
4103;DHT22;2065;49.790;9.620;2022-09-09T11:11:15;24.40;52.10
4103;DHT22;2065;49.790;9.620;2022-09-09T11:13:48;24.60;49.50
4103;DHT22;2065;49.790;9.620;2022-09-09T11:16:25;24.60;47.70
4103;DHT22;2065;49.790;9.620;2022-09-09T11:18:57;24.90;49.40
4103;DHT22;2065;49.790;9.620;2022-09-09T11:21:29;25.30;48.80
4103;DHT22;2065;49.790;9.620;2022-09-09T11:24:00;25.30;48.50
4103;DHT22;2065;49.790;9.620;2022-09-09T11:26:33;25.70;49.40
4103;DHT22;2065;49.790;9.620;2022-09-09T11:29:36;25.60;48.00
4103;DHT22;2065;49.790;9.620;2022-09-09T11:32:21;25.60;49.30
4103;DHT22;2065;49.790;9.620;2022-09-09T11:34:56;26.00;48.00
4103;DHT22;2065;49.790;9.620;2022-09-09T11:37:47;26.20;46.20
4103;DHT22;2065;49.790;9.620;2022-09-09T11:40:20;26.40;47.20
4103;DHT22;2065;49.790;9.620;2022-09-09T11:43:01;26.50;46.10
4103;DHT22;2065;49.790;9.620;2022-09-09T11:45:31;26.40;45.10
4103;DHT22;2065;49.790;9.620;2022-09-09T11:48:02;26.30;46.40
4103;DHT22;2065;49.790;9.620;2022-09-09T11:50:34;26.10;44.40
4103;DHT22;2065;49.790;9.620;2022-09-09T11:53:22;26.10;44.80
4103;DHT22;2065;49.790;9.620;2022-09-09T11:56:09;26.20;43.70
4103;DHT22;2065;49.790;9.620;2022-09-09T11:58:41;26.40;43.40
4103;DHT22;2065;49.790;9.620;2022-09-09T12:01:30;26.50;43.00
4103;DHT22;2065;49.790;9.620;2022-09-09T12:04:22;26.60;41.90
4103;DHT22;2065;49.790;9.620;2022-09-09T12:06:57;26.70;41.80
4103;DHT22;2065;49.790;9.620;2022-09-09T12:09:29;26.70;40.60
4103;DHT22;2065;49.790;9.620;2022-09-09T12:12:06;26.70;41.60
4103;DHT22;2065;49.790;9.620;2022-09-09T12:14:43;26.80;40.60
4103;DHT22;2065;49.790;9.620;2022-09-09T12:17:19;26.80;39.60
4103;DHT22;2065;49.790;9.620;2022-09-09T12:19:47;26.90;40.70
4103;DHT22;2065;49.790;9.620;2022-09-09T12:22:23;27.10;39.90
4103;DHT22;2065;49.790;9.620;2022-09-09T12:24:57;27.40;38.70
4103;DHT22;2065;49.790;9.620;2022-09-09T12:27:31;27.20;38.30
4103;DHT22;2065;49.790;9.620;2022-09-09T12:30:04;27.10;37.50
4103;DHT22;2065;49.790;9.620;2022-09-09T12:32:32;27.00;36.90
4103;DHT22;2065;49.790;9.620;2022-09-09T12:35:02;26.80;37.70
4103;DHT22;2065;49.790;9.620;2022-09-09T12:37:35;26.80;38.60
4103;DHT22;2065;49.790;9.620;2022-09-09T12:40:04;27.00;37.70
4103;DHT22;2065;49.790;9.620;2022-09-09T12:42:31;27.00;36.30
4103;DHT22;2065;49.790;9.620;2022-09-09T12:45:03;27.30;37.20
4103;DHT22;2065;49.790;9.620;2022-09-09T12:47:38;27.70;36.60
4103;DHT22;2065;49.790;9.620;2022-09-09T12:50:16;27.90;35.30
4103;DHT22;2065;49.790;9.620;2022-09-09T12:52:44;27.70;35.60
4103;DHT22;2065;49.790;9.620;2022-09-09T12:55:18;27.90;35.40
4103;DHT22;2065;49.790;9.620;2022-09-09T12:57:48;28.20;35.30
4103;DHT22;2065;49.790;9.620;2022-09-09T13:00:20;28.40;34.90
4103;DHT22;2065;49.790;9.620;2022-09-09T13:02:51;28.40;34.00
4103;DHT22;2065;49.790;9.620;2022-09-09T13:05:20;28.50;35.20
4103;DHT22;2065;49.790;9.620;2022-09-09T13:07:47;28.60;33.50
4103;DHT22;2065;49.790;9.620;2022-09-09T13:10:22;28.20;33.80
4103;DHT22;2065;49.790;9.620;2022-09-09T13:12:50;27.80;34.70
4103;DHT22;2065;49.790;9.620;2022-09-09T13:15:22;27.60;35.30
4103;DHT22;2065;49.790;9.620;2022-09-09T13:17:52;27.90;34.80
4103;DHT22;2065;49.790;9.620;2022-09-09T13:20:21;28.20;34.50
4103;DHT22;2065;49.790;9.620;2022-09-09T13:22:50;28.30;33.70
4103;DHT22;2065;49.790;9.620;2022-09-09T13:25:21;28.30;32.10
4103;DHT22;2065;49.790;9.620;2022-09-09T13:27:59;28.10;33.20
4103;DHT22;2065;49.790;9.620;2022-09-09T13:30:31;27.90;34.30
4103;DHT22;2065;49.790;9.620;2022-09-09T13:33:17;27.90;33.80
4103;DHT22;2065;49.790;9.620;2022-09-09T13:35:47;28.10;33.80
4103;DHT22;2065;49.790;9.620;2022-09-09T13:38:15;28.30;33.40
4103;DHT22;2065;49.790;9.620;2022-09-09T13:40:52;28.10;33.20
4103;DHT22;2065;49.790;9.620;2022-09-09T13:43:21;28.10;34.10
4103;DHT22;2065;49.790;9.620;2022-09-09T13:45:55;27.80;33.40
4103;DHT22;2065;49.790;9.620;2022-09-09T13:48:24;27.50;34.30
4103;DHT22;2065;49.790;9.620;2022-09-09T13:50:57;27.70;35.80
4103;DHT22;2065;49.790;9.620;2022-09-09T13:53:24;27.70;34.50
4103;DHT22;2065;49.790;9.620;2022-09-09T13:55:52;27.60;33.80
4103;DHT22;2065;49.790;9.620;2022-09-09T13:58:19;27.50;34.50
4103;DHT22;2065;49.790;9.620;2022-09-09T14:00:47;27.60;34.30
4103;DHT22;2065;49.790;9.620;2022-09-09T14:03:16;27.60;35.50
4103;DHT22;2065;49.790;9.620;2022-09-09T14:05:44;27.40;35.60
4103;DHT22;2065;49.790;9.620;2022-09-09T14:08:20;27.20;35.70
4103;DHT22;2065;49.790;9.620;2022-09-09T14:10:47;27.40;36.50
4103;DHT22;2065;49.790;9.620;2022-09-09T14:13:14;27.20;34.80
4103;DHT22;2065;49.790;9.620;2022-09-09T14:15:41;26.40;38.30
4103;DHT22;2065;49.790;9.620;2022-09-09T14:18:10;26.00;37.80
4103;DHT22;2065;49.790;9.620;2022-09-09T14:20:39;25.80;39.30
4103;DHT22;2065;49.790;9.620;2022-09-09T14:23:08;25.70;39.80
4103;DHT22;2065;49.790;9.620;2022-09-09T14:25:38;25.50;39.80
4103;DHT22;2065;49.790;9.620;2022-09-09T14:28:08;25.40;40.80
4103;DHT22;2065;49.790;9.620;2022-09-09T14:30:37;25.00;42.40
4103;DHT22;2065;49.790;9.620;2022-09-09T14:33:04;25.10;43.60
4103;DHT22;2065;49.790;9.620;2022-09-09T14:35:31;25.10;44.30
4103;DHT22;2065;49.790;9.620;2022-09-09T14:38:00;25.20;45.00
4103;DHT22;2065;49.790;9.620;2022-09-09T14:40:28;25.40;43.90
4103;DHT22;2065;49.790;9.620;2022-09-09T14:42:55;25.30;43.60
4103;DHT22;2065;49.790;9.620;2022-09-09T14:45:22;25.50;43.60
4103;DHT22;2065;49.790;9.620;2022-09-09T14:47:50;25.50;43.20
4103;DHT22;2065;49.790;9.620;2022-09-09T14:50:18;25.60;42.80
4103;DHT22;2065;49.790;9.620;2022-09-09T14:52:45;25.70;42.80
4103;DHT22;2065;49.790;9.620;2022-09-09T14:55:13;25.70;41.50
4103;DHT22;2065;49.790;9.620;2022-09-09T14:57:41;25.70;42.00
4103;DHT22;2065;49.790;9.620;2022-09-09T15:00:08;25.70;41.80
4103;DHT22;2065;49.790;9.620;2022-09-09T15:02:35;25.70;42.00
4103;DHT22;2065;49.790;9.620;2022-09-09T15:05:03;25.60;41.90
4103;DHT22;2065;49.790;9.620;2022-09-09T15:07:30;25.60;42.30
4103;DHT22;2065;49.790;9.620;2022-09-09T15:09:57;25.80;42.60
4103;DHT22;2065;49.790;9.620;2022-09-09T15:12:25;25.70;41.90
4103;DHT22;2065;49.790;9.620;2022-09-09T15:14:54;25.80;42.60
4103;DHT22;2065;49.790;9.620;2022-09-09T15:17:21;25.70;41.90
4103;DHT22;2065;49.790;9.620;2022-09-09T15:19:50;25.60;42.10
4103;DHT22;2065;49.790;9.620;2022-09-09T15:22:17;25.50;42.60
4103;DHT22;2065;49.790;9.620;2022-09-09T15:24:44;25.60;43.10
4103;DHT22;2065;49.790;9.620;2022-09-09T15:27:11;25.40;43.40
4103;DHT22;2065;49.790;9.620;2022-09-09T15:29:41;25.40;43.30
4103;DHT22;2065;49.790;9.620;2022-09-09T15:32:10;25.40;43.60
4103;DHT22;2065;49.790;9.620;2022-09-09T15:34:36;25.70;44.00
4103;DHT22;2065;49.790;9.620;2022-09-09T15:37:03;25.80;44.10
4103;DHT22;2065;49.790;9.620;2022-09-09T15:39:31;25.90;43.80
4103;DHT22;2065;49.790;9.620;2022-09-09T15:41:58;26.00;43.70
4103;DHT22;2065;49.790;9.620;2022-09-09T15:44:26;26.00;43.30
4103;DHT22;2065;49.790;9.620;2022-09-09T15:46:54;26.00;42.70
4103;DHT22;2065;49.790;9.620;2022-09-09T15:49:23;26.00;43.40
4103;DHT22;2065;49.790;9.620;2022-09-09T15:51:52;26.00;42.90
4103;DHT22;2065;49.790;9.620;2022-09-09T15:54:21;25.90;43.40
4103;DHT22;2065;49.790;9.620;2022-09-09T15:56:51;25.80;43.40
4103;DHT22;2065;49.790;9.620;2022-09-09T15:59:20;25.70;43.70
4103;DHT22;2065;49.790;9.620;2022-09-09T16:01:47;25.70;43.50
4103;DHT22;2065;49.790;9.620;2022-09-09T16:04:18;25.60;43.50
4103;DHT22;2065;49.790;9.620;2022-09-09T16:06:50;25.70;43.20
4103;DHT22;2065;49.790;9.620;2022-09-09T16:09:17;25.70;43.00
4103;DHT22;2065;49.790;9.620;2022-09-09T16:11:45;25.50;43.60
4103;DHT22;2065;49.790;9.620;2022-09-09T16:14:12;25.60;44.10
4103;DHT22;2065;49.790;9.620;2022-09-09T16:16:41;25.60;43.90
4103;DHT22;2065;49.790;9.620;2022-09-09T16:19:10;25.50;43.80
4103;DHT22;2065;49.790;9.620;2022-09-09T16:21:41;25.30;44.30
4103;DHT22;2065;49.790;9.620;2022-09-09T16:24:10;25.30;44.00
4103;DHT22;2065;49.790;9.620;2022-09-09T16:26:41;25.20;44.40
4103;DHT22;2065;49.790;9.620;2022-09-09T16:29:10;25.20;44.90
4103;DHT22;2065;49.790;9.620;2022-09-09T16:31:38;25.30;45.30
4103;DHT22;2065;49.790;9.620;2022-09-09T16:34:06;25.40;44.90